Terminal Aerodrome Forecast
Issued by NWS Wichita, KS

Home | Current Version | Previous Version | Text Only | Print | Product List | Glossary On
Versions: 1 2 3 4 5 6 7 8 9 10 11 12 13 14 15 16 17 18
846
FTUS43 KICT 180717 AAB
TAFICT
TAF AMD
KICT 180717Z 1807/1906 21007KT P6SM VCTS OVC080CB
      TEMPO 1808/1810 30015G25KT 5SM -TSRA OVC060CB
     FM181300 19010KT P6SM SCT025 BKN080
     FM182100 24010KT P6SM SCT070
     FM190000 VRB05KT P6SM SCT070 BKN250
     FM190400 32010KT P6SM SCT250=

USA.gov is the U.S. government's official web portal to all federal, state and local government web resources and services.